createdAt,value
2017-08-21T00:00:14.187Z,91.93
2017-08-21T00:01:24.146Z,91.93
2017-08-21T00:02:34.111Z,92.21
2017-08-21T00:03:44.384Z,92.16
2017-08-21T00:04:54.672Z,91.93
2017-08-21T00:06:04.639Z,91.55
2017-08-21T00:07:14.279Z,91.74
2017-08-21T00:08:23.921Z,91.83
2017-08-21T00:09:33.892Z,92.02
2017-08-21T00:10:43.851Z,92.02
2017-08-21T00:11:54.119Z,92.07
2017-08-21T00:13:04.075Z,92.31
2017-08-21T00:14:14.354Z,92.02
2017-08-21T00:15:24.625Z,92.79
2017-08-21T00:16:34.591Z,93.17
2017-08-21T00:17:44.568Z,93.55
2017-08-21T00:18:54.856Z,93.36
2017-08-21T00:20:05.140Z,93.17
2017-08-21T00:21:14.784Z,93.36
2017-08-21T00:22:25.057Z,93.36
2017-08-21T00:23:35.017Z,93.36
2017-08-21T00:24:44.980Z,93.07
2017-08-21T00:25:55.253Z,93.65
2017-08-21T00:27:05.527Z,93.88
2017-08-21T00:28:15.818Z,94.03
2017-08-21T00:29:26.092Z,94.12
2017-08-21T00:30:36.090Z,94.36
2017-08-21T00:31:46.370Z,93.93
2017-08-21T00:32:56.334Z,93.98
2017-08-21T00:34:06.609Z,93.98
2017-08-21T00:35:16.721Z,93.02
2017-08-21T00:36:26.991Z,92.55
2017-08-21T00:37:36.966Z,92.64
2017-08-21T00:38:46.931Z,92.45
2017-08-21T00:39:57.202Z,93.02
2017-08-21T00:41:07.474Z,92.36
2017-08-21T00:42:17.748Z,91.88
2017-08-21T00:43:27.711Z,91.69
2017-08-21T00:44:37.668Z,91.78
2017-08-21T00:45:47.624Z,92.45
2017-08-21T00:46:57.897Z,92.55
2017-08-21T00:48:08.175Z,92.36
2017-08-21T00:49:18.134Z,91.97
2017-08-21T00:50:28.089Z,92.36
2017-08-21T00:51:38.052Z,92.07
2017-08-21T00:52:47.695Z,92.07
2017-08-21T00:53:57.983Z,92.64
2017-08-21T00:55:07.948Z,93.12
2017-08-21T00:56:18.217Z,92.93
2017-08-21T00:57:28.488Z,92.64
2017-08-21T00:58:38.447Z,92.88
2017-08-21T00:59:48.405Z,93.74
2017-08-21T01:00:58.369Z,93.65
2017-08-21T01:02:08.012Z,93.7
2017-08-21T01:03:17.654Z,93.6
2017-08-21T01:04:27.924Z,94.07
2017-08-21T01:05:37.883Z,93.79
2017-08-21T01:06:48.155Z,93.84
2017-08-21T01:07:58.431Z,93.88
2017-08-21T01:09:08.389Z,93.84
2017-08-21T01:10:18.673Z,94.22
2017-08-21T01:11:28.629Z,94.7
2017-08-21T01:12:37.974Z,94.79
2017-08-21T01:13:47.620Z,94.7
2017-08-21T01:14:57.891Z,94.03
2017-08-21T01:16:07.532Z,94.12
2017-08-21T01:17:17.175Z,94.12
2017-08-21T01:18:27.132Z,94.22
2017-08-21T01:19:37.405Z,94.22
2017-08-21T01:20:47.674Z,93.93
2017-08-21T01:21:57.944Z,94.12
2017-08-21T01:23:08.216Z,94.31
2017-08-21T01:24:18.487Z,94.31
2017-08-21T01:25:28.130Z,94.98
2017-08-21T01:26:37.770Z,94.51
2017-08-21T01:27:47.724Z,94.79
2017-08-21T01:28:57.998Z,94.6
2017-08-21T01:30:07.964Z,94.41
2017-08-21T01:31:18.238Z,94.41
2017-08-21T01:32:28.509Z,94.98
2017-08-21T01:33:38.153Z,95.08
2017-08-21T01:34:47.795Z,95.36
2017-08-21T01:35:58.074Z,94.7
2017-08-21T01:37:08.031Z,94.6
2017-08-21T01:38:18.302Z,95.56
2017-08-21T01:39:28.258Z,95.56
2017-08-21T01:40:37.902Z,95.36
2017-08-21T01:41:47.873Z,95.46
2017-08-21T01:42:57.830Z,95.56
2017-08-21T01:44:07.787Z,95.56
2017-08-21T01:45:17.430Z,95.56
2017-08-21T01:46:27.696Z,94.41
2017-08-21T01:47:37.677Z,94.79
2017-08-21T01:48:47.641Z,93.93
2017-08-21T01:49:57.285Z,93.65
2017-08-21T01:51:07.553Z,93.07
2017-08-21T01:52:17.824Z,92.97
2017-08-21T01:53:28.094Z,93.07
2017-08-21T01:54:38.059Z,92.79
2017-08-21T01:55:47.697Z,92.79
2017-08-21T01:56:57.967Z,93.26
2017-08-21T01:58:07.927Z,92.69
2017-08-21T01:59:18.201Z,93.17
2017-08-21T02:00:28.158Z,92.97
2017-08-21T02:01:38.426Z,93.46
2017-08-21T02:02:48.065Z,94.31
2017-08-21T02:03:58.339Z,93.93
2017-08-21T02:05:07.995Z,93.84
2017-08-21T02:06:17.957Z,94.12
2017-08-21T02:07:28.227Z,94.03
2017-08-21T02:08:38.284Z,93.65
2017-08-21T02:09:47.609Z,94.03
2017-08-21T02:10:57.263Z,94.89
2017-08-21T02:12:07.540Z,94.79
2017-08-21T02:13:17.505Z,95.56
2017-08-21T02:14:27.776Z,95.84
2017-08-21T02:15:37.415Z,96.13
2017-08-21T02:16:47.690Z,96.13
2017-08-21T02:17:57.966Z,96.32
2017-08-21T02:19:07.627Z,96.61
2017-08-21T02:20:17.897Z,95.75
2017-08-21T02:21:27.862Z,96.89
2017-08-21T02:22:37.503Z,96.32
2017-08-21T02:23:47.778Z,96.42
2017-08-21T02:24:57.761Z,96.8
2017-08-21T02:26:08.030Z,96.61
2017-08-21T02:27:18.303Z,97.08
2017-08-21T02:28:28.273Z,97.08
2017-08-21T02:29:37.916Z,97.27
2017-08-21T02:30:48.185Z,97.75
2017-08-21T02:31:58.452Z,97.66
2017-08-21T02:33:08.424Z,96.98
2017-08-21T02:34:18.071Z,97.66
2017-08-21T02:35:28.358Z,97.85
2017-08-21T02:36:37.692Z,98.03
2017-08-21T02:37:47.970Z,98.13
2017-08-21T02:38:58.262Z,97.08
2017-08-21T02:40:08.223Z,97.56
2017-08-21T02:41:18.514Z,97.85
2017-08-21T02:42:28.482Z,97.08
2017-08-21T02:43:38.444Z,97.08
2017-08-21T02:44:48.739Z,97.66
2017-08-21T02:45:59.030Z,98.32
2017-08-21T02:47:09.329Z,98.8
2017-08-21T02:48:19.286Z,98.61
2017-08-21T02:49:29.251Z,98.99
2017-08-21T02:50:39.523Z,98.13
2017-08-21T02:51:49.481Z,98.23
2017-08-21T02:52:59.750Z,98.23
2017-08-21T02:54:10.027Z,97.94
2017-08-21T02:55:22.302Z,98.42
2017-08-21T02:56:32.575Z,98.23
2017-08-21T02:57:42.533Z,98.42
2017-08-21T02:58:52.496Z,98.42
2017-08-21T03:00:02.775Z,98.42
2017-08-21T03:01:13.048Z,98.8
2017-08-21T03:02:23.319Z,98.61
2017-08-21T03:03:33.597Z,98.52
2017-08-21T03:04:43.574Z,98.52
2017-08-21T03:05:53.220Z,98.32
2017-08-21T03:07:03.193Z,98.61
2017-08-21T03:08:13.468Z,98.8
2017-08-21T03:09:23.740Z,98.9
2017-08-21T03:10:33.696Z,98.71
2017-08-21T03:11:43.351Z,98.8
2017-08-21T03:12:52.991Z,99.37
2017-08-21T03:14:03.264Z,99.66
2017-08-21T03:15:13.537Z,98.61
2017-08-21T03:16:23.812Z,98.61
2017-08-21T03:17:34.086Z,99.18
2017-08-21T03:18:44.047Z,99.57
2017-08-21T03:19:53.687Z,99.37
2017-08-21T03:21:03.333Z,99.37
2017-08-21T03:22:13.604Z,99.28
2017-08-21T03:23:23.876Z,98.9
2017-08-21T03:24:34.154Z,99.47
2017-08-21T03:25:44.429Z,99.28
2017-08-21T03:26:54.074Z,99.85
2017-08-21T03:28:04.349Z,99.76
2017-08-21T03:29:14.620Z,99.99
2017-08-21T03:30:24.891Z,99.99
2017-08-21T03:31:35.171Z,99.99
2017-08-21T03:32:45.126Z,99.99
2017-08-21T03:33:55.084Z,99.99
2017-08-21T03:35:05.358Z,99.99
2017-08-21T03:36:15.667Z,99.99
2017-08-21T03:37:25.939Z,99.99
2017-08-21T03:38:35.577Z,99.99
2017-08-21T03:39:45.534Z,99.99
2017-08-21T03:40:55.807Z,99.99
2017-08-21T03:42:05.451Z,99.99
2017-08-21T03:43:15.722Z,99.99
2017-08-21T03:44:25.679Z,99.99
2017-08-21T03:45:35.636Z,99.99
2017-08-21T03:46:45.598Z,99.99
2017-08-21T03:47:55.754Z,99.99
2017-08-21T03:49:05.712Z,99.99
2017-08-21T03:50:16.009Z,99.99
2017-08-21T03:51:25.966Z,99.99
2017-08-21T03:52:36.235Z,99.99
2017-08-21T03:53:45.880Z,99.99
2017-08-21T03:54:56.148Z,99.99
2017-08-21T03:56:05.801Z,99.99
2017-08-21T03:57:16.078Z,99.99
2017-08-21T03:58:26.350Z,99.99
2017-08-21T03:59:36.626Z,99.99
2017-08-21T04:00:46.268Z,99.99
2017-08-21T04:01:56.223Z,99.99
2017-08-21T04:03:06.493Z,99.99
2017-08-21T04:04:16.447Z,99.99
2017-08-21T04:05:26.095Z,99.99
2017-08-21T04:06:36.367Z,99.99
2017-08-21T04:07:46.332Z,99.99
2017-08-21T04:08:56.289Z,99.99
2017-08-21T04:10:06.563Z,99.99
2017-08-21T04:11:16.837Z,99.99
2017-08-21T04:12:27.106Z,99.99
2017-08-21T04:13:36.747Z,99.99
2017-08-21T04:14:47.017Z,99.99
2017-08-21T04:15:57.286Z,99.99
2017-08-21T04:17:07.246Z,99.99
2017-08-21T04:18:17.517Z,99.99
2017-08-21T04:19:27.474Z,99.99
2017-08-21T04:20:37.439Z,99.99
2017-08-21T04:21:47.401Z,99.99
2017-08-21T04:22:57.675Z,99.99
2017-08-21T04:24:07.658Z,99.99
2017-08-21T04:25:17.935Z,99.99
2017-08-21T04:26:28.205Z,99.99
2017-08-21T04:27:37.535Z,99.99
2017-08-21T04:28:47.490Z,99.99
2017-08-21T04:29:57.765Z,99.99
2017-08-21T04:31:08.040Z,99.99
2017-08-21T04:32:18.331Z,99.99
2017-08-21T04:33:28.612Z,99.99
2017-08-21T04:34:38.251Z,99.99
2017-08-21T04:35:48.207Z,99.99
2017-08-21T04:36:58.179Z,99.95
2017-08-21T04:38:08.457Z,99.99
2017-08-21T04:39:18.420Z,99.99
2017-08-21T04:40:28.700Z,99.99
2017-08-21T04:41:38.975Z,99.99
2017-08-21T04:42:48.309Z,99.99
2017-08-21T04:43:58.596Z,99.95
2017-08-21T04:45:08.559Z,99.85
2017-08-21T04:46:18.829Z,99.57
2017-08-21T04:47:29.105Z,99.76
2017-08-21T04:48:39.386Z,99.85
2017-08-21T04:49:49.342Z,98.99
2017-08-21T04:50:59.612Z,99.76
2017-08-21T04:52:09.891Z,99.57
2017-08-21T04:53:20.173Z,99.57
2017-08-21T04:54:30.129Z,99.52
2017-08-21T04:55:40.404Z,99.18
2017-08-21T04:56:50.360Z,98.85
2017-08-21T04:58:00.318Z,99.43
2017-08-21T04:59:10.275Z,99.33
2017-08-21T05:00:20.543Z,99.62
2017-08-21T05:01:30.818Z,98.94
2017-08-21T05:02:41.099Z,99.04
2017-08-21T05:03:51.054Z,98.85
2017-08-21T05:05:01.013Z,98.85
2017-08-21T05:06:11.008Z,99.04
2017-08-21T05:07:20.653Z,98.28
2017-08-21T05:08:30.934Z,98.28
2017-08-21T05:09:40.578Z,98.37
2017-08-21T05:10:50.847Z,98.18
2017-08-21T05:12:01.119Z,98.66
2017-08-21T05:13:10.769Z,98.37
2017-08-21T05:14:20.734Z,98.08
2017-08-21T05:15:31.029Z,97.89
2017-08-21T05:16:40.983Z,97.89
2017-08-21T05:17:50.625Z,97.71
2017-08-21T05:19:00.589Z,97.8
2017-08-21T05:20:10.546Z,97.89
2017-08-21T05:21:20.506Z,97.61
2017-08-21T05:22:30.780Z,97.99
2017-08-21T05:23:40.740Z,97.42
2017-08-21T05:24:50.694Z,96.42
2017-08-21T05:26:00.651Z,96.51
2017-08-21T05:27:09.984Z,96.46
2017-08-21T05:28:20.263Z,96.61
2017-08-21T05:29:30.534Z,96.99
2017-08-21T05:30:40.190Z,96.61
2017-08-21T05:31:50.473Z,96.7
2017-08-21T05:33:00.428Z,96.99
2017-08-21T05:34:10.384Z,96.61
2017-08-21T05:35:20.665Z,97.28
2017-08-21T05:36:30.939Z,97.18
2017-08-21T05:37:40.580Z,97.94
2017-08-21T05:38:50.551Z,97.75
2017-08-21T05:40:00.508Z,97.18
2017-08-21T05:41:10.466Z,97.47
2017-08-21T05:42:20.426Z,96.7
2017-08-21T05:43:30.705Z,96.61
2017-08-21T05:44:40.664Z,95.84
2017-08-21T05:45:50.624Z,95.84
2017-08-21T05:47:00.583Z,94.98
2017-08-21T05:48:10.866Z,95.17
2017-08-21T05:49:20.825Z,95.51
2017-08-21T05:50:30.785Z,94.41
2017-08-21T05:51:40.747Z,94.79
2017-08-21T05:52:51.018Z,94.65
2017-08-21T05:54:01.300Z,94.6
2017-08-21T05:55:11.595Z,94.65
2017-08-21T05:56:21.552Z,93.93
2017-08-21T05:57:31.827Z,94.12
2017-08-21T05:58:41.792Z,94.79
2017-08-21T05:59:52.071Z,94.7
2017-08-21T06:01:02.346Z,95.07
2017-08-21T06:02:12.623Z,94.98
2017-08-21T06:03:22.267Z,95.46
2017-08-21T06:04:32.542Z,95.17
2017-08-21T06:05:42.816Z,94.89
2017-08-21T06:06:52.773Z,94.93
2017-08-21T06:08:03.047Z,94.7
2017-08-21T06:09:13.011Z,94.22
2017-08-21T06:10:23.293Z,94.6
2017-08-21T06:11:33.577Z,94.93
2017-08-21T06:12:43.849Z,93.88
2017-08-21T06:13:53.805Z,94.26
2017-08-21T06:15:03.453Z,93.88
2017-08-21T06:16:13.413Z,93.4
2017-08-21T06:17:23.692Z,93.98
2017-08-21T06:18:33.965Z,93.6
2017-08-21T06:19:44.237Z,93.6
2017-08-21T06:20:54.199Z,93.6
2017-08-21T06:22:04.333Z,93.88
2017-08-21T06:23:14.290Z,93.21
2017-08-21T06:24:24.254Z,92.78
2017-08-21T06:25:34.530Z,92.4
2017-08-21T06:26:44.805Z,92.59
2017-08-21T06:27:55.088Z,92.88
2017-08-21T06:29:05.050Z,91.92
2017-08-21T06:30:15.326Z,91.92
2017-08-21T06:31:24.968Z,91.16
2017-08-21T06:32:35.242Z,91.53
2017-08-21T06:33:45.514Z,91.35
2017-08-21T06:34:55.159Z,91.53
2017-08-21T06:36:05.168Z,91.25
2017-08-21T06:37:15.439Z,89.81
2017-08-21T06:38:25.084Z,89.72
2017-08-21T06:39:35.356Z,89.15
2017-08-21T06:40:45.633Z,90.2
2017-08-21T06:41:55.600Z,90.96
2017-08-21T06:43:05.562Z,90.67
2017-08-21T06:44:15.523Z,90.01
2017-08-21T06:45:25.481Z,89.81
2017-08-21T06:46:35.131Z,90.1
2017-08-21T06:47:45.404Z,90.01
2017-08-21T06:48:57.467Z,90.01
2017-08-21T06:50:07.435Z,90.58
2017-08-21T06:51:17.714Z,89.81
2017-08-21T06:52:27.991Z,89.15
2017-08-21T06:53:37.952Z,89.24
2017-08-21T06:54:48.228Z,88.86
2017-08-21T06:55:58.500Z,86.94
2017-08-21T06:57:08.459Z,86.94
2017-08-21T06:58:18.105Z,86.28
2017-08-21T06:59:28.451Z,86.94
2017-08-21T07:00:38.727Z,86.94
2017-08-21T07:01:49.013Z,86.94
2017-08-21T07:02:58.973Z,87.14
2017-08-21T07:04:09.250Z,87.04
2017-08-21T07:05:19.210Z,87.33
2017-08-21T07:06:29.490Z,87.04
2017-08-21T07:07:39.450Z,87.37
2017-08-21T07:08:49.095Z,85.75
2017-08-21T07:09:59.054Z,85.55
2017-08-21T07:11:09.332Z,86.61
2017-08-21T07:12:19.296Z,84.98
2017-08-21T07:13:29.572Z,85.89
2017-08-21T07:14:39.539Z,84.22
2017-08-21T07:15:49.532Z,86.51
2017-08-21T07:16:59.804Z,86.51
2017-08-21T07:18:09.765Z,85.55
2017-08-21T07:19:19.727Z,84.5
2017-08-21T07:20:29.690Z,85.22
2017-08-21T07:21:39.653Z,86.94
2017-08-21T07:22:49.302Z,87.08
2017-08-21T07:23:59.598Z,87.14
2017-08-21T07:25:09.568Z,87.66
2017-08-21T07:26:19.532Z,87.23
2017-08-21T07:27:29.805Z,87.62
2017-08-21T07:28:39.764Z,85.94
2017-08-21T07:29:50.042Z,86.13
2017-08-21T07:31:00.315Z,85.84
2017-08-21T07:32:10.593Z,83.83
2017-08-21T07:33:20.871Z,86.94
2017-08-21T07:34:30.827Z,86.9
2017-08-21T07:35:41.111Z,85.65
2017-08-21T07:36:51.384Z,86.7
2017-08-21T07:38:01.668Z,86.51
2017-08-21T07:39:11.652Z,86.22
2017-08-21T07:40:21.928Z,84.02
2017-08-21T07:41:32.201Z,84.64
2017-08-21T07:42:42.486Z,84.06
2017-08-21T07:43:52.766Z,83.11
2017-08-21T07:45:02.726Z,83.54
2017-08-21T07:46:12.692Z,83.64
2017-08-21T07:47:22.677Z,83.64
2017-08-21T07:48:32.639Z,84.69
2017-08-21T07:49:42.911Z,86.04
2017-08-21T07:50:53.186Z,84.79
2017-08-21T07:52:03.144Z,82.59
2017-08-21T07:53:13.104Z,82.24
2017-08-21T07:54:23.064Z,84.12
2017-08-21T07:55:32.708Z,84.12
2017-08-21T07:56:42.667Z,83.59
2017-08-21T07:57:52.631Z,82.34
2017-08-21T07:59:02.595Z,83.59
2017-08-21T08:00:12.563Z,83.2
2017-08-21T08:01:22.837Z,82.76
2017-08-21T08:02:33.125Z,81.04
2017-08-21T08:03:43.404Z,81.33
2017-08-21T08:04:53.399Z,82
2017-08-21T08:06:03.680Z,80.76
2017-08-21T08:07:13.645Z,81.62
2017-08-21T08:08:23.925Z,80.76
2017-08-21T08:09:34.203Z,81.81
2017-08-21T08:10:43.852Z,79.26
2017-08-21T08:11:53.825Z,81.9
2017-08-21T08:13:03.786Z,81.66
2017-08-21T08:14:14.063Z,80.6
2017-08-21T08:15:24.346Z,80.22
2017-08-21T08:16:34.619Z,77.63
2017-08-21T08:17:44.897Z,77.29
2017-08-21T08:18:54.544Z,74.6
2017-08-21T08:20:04.504Z,77
2017-08-21T08:21:14.473Z,76.14
2017-08-21T08:22:24.498Z,74.22
2017-08-21T08:23:34.147Z,76.9
2017-08-21T08:24:43.792Z,76.71
2017-08-21T08:25:54.066Z,77.09
2017-08-21T08:27:04.343Z,76.07
2017-08-21T08:28:14.317Z,76.17
2017-08-21T08:29:24.599Z,74.83
2017-08-21T08:30:34.871Z,75.4
2017-08-21T08:31:44.832Z,73.58
2017-08-21T08:32:54.814Z,75.89
2017-08-21T08:34:04.785Z,75.7
2017-08-21T08:35:15.066Z,74.83
2017-08-21T08:36:25.346Z,73.68
2017-08-21T08:37:35.626Z,72.47
2017-08-21T08:38:45.904Z,72.81
2017-08-21T08:39:55.869Z,75.12
2017-08-21T08:41:05.515Z,73.2
2017-08-21T08:42:15.478Z,74.35
2017-08-21T08:43:25.755Z,73.3
2017-08-21T08:44:35.717Z,73.1
2017-08-21T08:45:45.995Z,73.2
2017-08-21T08:46:55.344Z,72.53
2017-08-21T08:48:05.310Z,73.3
2017-08-21T08:49:14.973Z,72.91
2017-08-21T08:50:25.250Z,72.53
2017-08-21T08:51:35.211Z,73.24
2017-08-21T08:52:45.487Z,72.95
2017-08-21T08:53:55.134Z,72.75
2017-08-21T08:55:05.425Z,71.22
2017-08-21T08:56:15.708Z,71.61
2017-08-21T08:57:25.989Z,71.61
2017-08-21T08:58:36.267Z,71.16
2017-08-21T08:59:46.245Z,71.55
2017-08-21T09:00:56.539Z,71.83
2017-08-21T09:02:06.190Z,71.93
2017-08-21T09:03:16.176Z,69.85
2017-08-21T09:04:26.143Z,70.33
2017-08-21T09:05:36.418Z,70.52
2017-08-21T09:06:46.700Z,70.23
2017-08-21T09:07:56.353Z,70.23
2017-08-21T09:09:06.666Z,68.7
2017-08-21T09:10:16.941Z,70.52
2017-08-21T09:11:26.594Z,69.6
2017-08-21T09:12:36.959Z,68.79
2017-08-21T09:13:47.238Z,67.64
2017-08-21T09:14:57.209Z,69.46
2017-08-21T09:16:07.172Z,70.52
2017-08-21T09:17:17.137Z,71.35
2017-08-21T09:18:27.101Z,70.58
2017-08-21T09:19:37.064Z,70.23
2017-08-21T09:20:46.713Z,69.37
2017-08-21T09:21:56.677Z,69.95
2017-08-21T09:23:06.329Z,70.14
2017-08-21T09:24:16.612Z,70.14
2017-08-21T09:25:26.901Z,71
2017-08-21T09:26:36.889Z,69.75
2017-08-21T09:27:46.854Z,69.31
2017-08-21T09:28:56.825Z,69.21
2017-08-21T09:30:06.792Z,69.12
2017-08-21T09:31:17.071Z,66.81
2017-08-21T09:32:27.399Z,68.83
2017-08-21T09:33:37.684Z,68.83
2017-08-21T09:34:47.972Z,68.06
2017-08-21T09:35:58.265Z,67.68
2017-08-21T09:37:08.228Z,68.25
2017-08-21T09:38:18.205Z,68.83
2017-08-21T09:39:28.492Z,68.92
2017-08-21T09:40:38.140Z,68.73
2017-08-21T09:41:48.419Z,68.92
2017-08-21T09:42:58.073Z,67.68
2017-08-21T09:44:08.043Z,68.06
2017-08-21T09:45:18.364Z,68.63
2017-08-21T09:46:28.651Z,68.06
2017-08-21T09:47:38.933Z,68.73
2017-08-21T09:48:48.896Z,67.8
2017-08-21T09:49:59.179Z,66.46
2017-08-21T09:51:09.152Z,68.63
2017-08-21T09:52:19.462Z,69.79
2017-08-21T09:53:29.425Z,68.54
2017-08-21T09:54:39.704Z,67.68
2017-08-21T09:55:49.351Z,68.25
2017-08-21T09:56:58.688Z,67
2017-08-21T09:58:08.664Z,67.07
2017-08-21T09:59:18.627Z,66.77
2017-08-21T10:00:28.588Z,67.22
2017-08-21T10:01:38.240Z,69.14
2017-08-21T10:02:48.519Z,71.73
2017-08-21T10:03:58.803Z,71.45
2017-08-21T10:05:08.771Z,70.97
2017-08-21T10:06:18.417Z,71.35
2017-08-21T10:07:28.696Z,69.27
2017-08-21T10:08:38.974Z,67.99
2017-08-21T10:09:48.623Z,68.08
2017-08-21T10:10:58.903Z,70.2
2017-08-21T10:12:08.867Z,71.64
2017-08-21T10:13:19.153Z,71.64
2017-08-21T10:14:29.434Z,70.49
2017-08-21T10:15:39.721Z,70.2
2017-08-21T10:16:49.691Z,69.95
2017-08-21T10:17:59.656Z,69.37
2017-08-21T10:19:08.674Z,69.69
2017-08-21T10:20:18.955Z,68.15
2017-08-21T10:21:28.925Z,65.75
2017-08-21T10:22:39.208Z,68.15
2017-08-21T10:23:49.169Z,68.25
2017-08-21T10:24:59.131Z,66.71
2017-08-21T10:26:08.780Z,67.38
2017-08-21T10:27:18.769Z,65.01
2017-08-21T10:28:28.421Z,66.52
2017-08-21T10:29:38.390Z,66.71
2017-08-21T10:30:48.039Z,65.5
2017-08-21T10:31:58.329Z,63.38
2017-08-21T10:33:07.991Z,65.37
2017-08-21T10:34:18.274Z,65.01
2017-08-21T10:35:28.236Z,66.17
2017-08-21T10:36:38.517Z,66.17
2017-08-21T10:37:48.477Z,64.15
2017-08-21T10:38:58.125Z,63.76
2017-08-21T10:40:08.092Z,60.85
2017-08-21T10:41:18.371Z,64.6
2017-08-21T10:42:28.648Z,64.79
2017-08-21T10:43:38.929Z,63.92
2017-08-21T10:44:48.582Z,62.51
2017-08-21T10:45:58.860Z,64.82
2017-08-21T10:47:08.825Z,64.34
2017-08-21T10:48:19.107Z,64.92
2017-08-21T10:49:29.390Z,65.01
2017-08-21T10:50:39.670Z,63.79
2017-08-21T10:51:49.007Z,62.35
2017-08-21T10:52:58.972Z,61.39
2017-08-21T10:54:09.254Z,64.34
2017-08-21T10:55:19.532Z,60.81
2017-08-21T10:56:29.815Z,60.3
2017-08-21T10:57:39.467Z,62.96
2017-08-21T10:58:49.118Z,63.35
2017-08-21T10:59:59.396Z,65.37
2017-08-21T11:01:09.361Z,63.35
2017-08-21T11:02:19.330Z,60.88
2017-08-21T11:03:29.609Z,60.97
2017-08-21T11:04:39.990Z,61.14
2017-08-21T11:05:49.335Z,62.07
2017-08-21T11:06:59.300Z,65.91
2017-08-21T11:08:08.952Z,65.46
2017-08-21T11:09:18.931Z,64.79
2017-08-21T11:10:28.901Z,64.63
2017-08-21T11:11:38.867Z,62.54
2017-08-21T11:12:48.515Z,61.1
2017-08-21T11:13:58.802Z,61.04
2017-08-21T11:15:09.086Z,60.84
2017-08-21T11:16:18.737Z,61.8
2017-08-21T11:17:28.703Z,59.49
2017-08-21T11:18:38.669Z,60.97
2017-08-21T11:19:48.644Z,59.52
2017-08-21T11:20:58.629Z,59.84
2017-08-21T11:22:08.908Z,59.75
2017-08-21T11:23:18.560Z,59
2017-08-21T11:24:28.843Z,59.23
2017-08-21T11:25:38.808Z,58.19
2017-08-21T11:26:48.773Z,57.35
2017-08-21T11:27:58.737Z,51.95
2017-08-21T11:29:09.024Z,51.75
2017-08-21T11:30:19.320Z,52.5
2017-08-21T11:31:29.007Z,52.79
2017-08-21T11:32:39.299Z,52.31
2017-08-21T11:33:49.268Z,51.63
2017-08-21T11:34:59.551Z,54.91
2017-08-21T11:36:09.844Z,54
2017-08-21T11:37:20.126Z,50.45
2017-08-21T11:38:30.410Z,49.41
2017-08-21T11:39:40.100Z,48.69
2017-08-21T11:40:49.463Z,50.79
2017-08-21T11:41:59.440Z,51.56
2017-08-21T11:43:09.098Z,52.72
2017-08-21T11:44:19.067Z,51.2
2017-08-21T11:45:29.040Z,52.45
2017-08-21T11:46:39.020Z,52.29
2017-08-21T11:47:48.677Z,52.48
2017-08-21T11:48:58.963Z,52.99
2017-08-21T11:50:09.249Z,51.44
2017-08-21T11:51:19.537Z,50.4
2017-08-21T11:52:29.512Z,50.89
2017-08-21T11:53:39.796Z,49.92
2017-08-21T11:54:49.141Z,50.38
2017-08-21T11:55:59.431Z,50.93
2017-08-21T11:57:09.088Z,51.51
2017-08-21T11:58:19.378Z,50.93
2017-08-21T11:59:29.670Z,52.67
2017-08-21T12:00:39.643Z,52.48
2017-08-21T12:01:49.610Z,52.39
2017-08-21T12:02:59.909Z,52.31
2017-08-21T12:04:10.201Z,53.19
2017-08-21T12:05:20.178Z,52.41
2017-08-21T12:06:30.461Z,52.41
2017-08-21T12:07:40.745Z,52.24
2017-08-21T12:08:50.721Z,51.66
2017-08-21T12:10:00.690Z,51.08
2017-08-21T12:11:10.665Z,51.37
2017-08-21T12:12:20.950Z,50.98
2017-08-21T12:13:31.244Z,51.47
2017-08-21T12:14:41.232Z,51.18
2017-08-21T12:15:51.515Z,51.18
2017-08-21T12:17:01.482Z,51.08
2017-08-21T12:18:11.455Z,51.66
2017-08-21T12:19:21.104Z,51.66
2017-08-21T12:20:30.762Z,51.37
2017-08-21T12:21:41.046Z,51.56
2017-08-21T12:22:50.704Z,50.7
2017-08-21T12:24:00.996Z,50.7
2017-08-21T12:25:10.964Z,51.18
2017-08-21T12:26:20.933Z,50.67
2017-08-21T12:27:30.271Z,50.38
2017-08-21T12:28:39.928Z,49.8
2017-08-21T12:29:49.584Z,50.09
2017-08-21T12:30:59.237Z,49.32
2017-08-21T12:32:09.536Z,48.74
2017-08-21T12:33:19.506Z,49.7
2017-08-21T12:34:29.473Z,49.41
2017-08-21T12:35:39.754Z,49.12
2017-08-21T12:36:49.722Z,49.58
2017-08-21T12:37:59.066Z,49.6
2017-08-21T12:39:09.137Z,49.99
2017-08-21T12:40:19.422Z,50.48
2017-08-21T12:41:29.713Z,49.22
2017-08-21T12:42:40.001Z,49.41
2017-08-21T12:43:49.974Z,49.51
2017-08-21T12:45:00.254Z,49.7
2017-08-21T12:46:10.224Z,49.7
2017-08-21T12:47:20.521Z,49.7
2017-08-21T12:48:30.493Z,49.41
2017-08-21T12:49:40.467Z,49.41
2017-08-21T12:50:50.117Z,49.51
2017-08-21T12:52:00.096Z,49.12
2017-08-21T12:53:10.086Z,49.41
2017-08-21T12:54:19.742Z,49.51
2017-08-21T12:55:30.027Z,49.99
2017-08-21T12:56:40.323Z,50.96
2017-08-21T12:57:50.302Z,50.76
2017-08-21T12:59:00.267Z,50.02
2017-08-21T13:00:10.238Z,51.18
2017-08-21T13:01:20.206Z,49.63
2017-08-21T13:02:29.859Z,49.34
2017-08-21T13:03:39.823Z,49.07
2017-08-21T13:04:49.481Z,48.97
2017-08-21T13:05:59.135Z,49.46
2017-08-21T13:07:09.425Z,48.2
2017-08-21T13:08:19.707Z,48.49
2017-08-21T13:09:30.013Z,48.88
2017-08-21T13:10:39.997Z,49.56
2017-08-21T13:11:49.645Z,48.88
2017-08-21T13:12:59.612Z,49.27
2017-08-21T13:14:09.599Z,48.69
2017-08-21T13:15:19.881Z,48.2
2017-08-21T13:16:30.166Z,48.39
2017-08-21T13:17:40.135Z,48.49
2017-08-21T13:18:50.420Z,47.62
2017-08-21T13:20:00.390Z,48.88
2017-08-21T13:21:09.728Z,46.84
2017-08-21T13:22:19.698Z,47.81
2017-08-21T13:23:29.669Z,47.72
2017-08-21T13:24:39.640Z,48.49
2017-08-21T13:25:49.607Z,48.39
2017-08-21T13:26:59.890Z,49.17
2017-08-21T13:28:10.182Z,48.39
2017-08-21T13:29:20.465Z,49.15
2017-08-21T13:30:30.431Z,48.86
2017-08-21T13:31:40.403Z,49.15
2017-08-21T13:32:50.692Z,49.15
2017-08-21T13:34:00.658Z,49.44
2017-08-21T13:35:10.637Z,48.86
2017-08-21T13:36:20.293Z,49.02
2017-08-21T13:37:30.573Z,48.83
2017-08-21T13:38:40.225Z,49.51
2017-08-21T13:39:49.876Z,49.8
2017-08-21T13:40:59.214Z,49.34
2017-08-21T13:42:08.570Z,49.82
2017-08-21T13:43:18.538Z,48.76
2017-08-21T13:44:28.587Z,48.57
2017-08-21T13:45:38.605Z,48.95
2017-08-21T13:46:48.918Z,49.24
2017-08-21T13:47:58.900Z,49.24
2017-08-21T13:49:08.867Z,47.11
2017-08-21T13:50:19.155Z,48.66
2017-08-21T13:51:29.128Z,48.86
2017-08-21T13:52:39.409Z,49.54
2017-08-21T13:53:49.373Z,48.86
2017-08-21T13:54:59.347Z,49.34
2017-08-21T13:56:09.317Z,49.24
2017-08-21T13:57:19.603Z,49.34
2017-08-21T13:58:29.573Z,47.21
2017-08-21T13:59:39.548Z,48.76
2017-08-21T14:00:49.515Z,47.99
2017-08-21T14:01:59.165Z,47.6
2017-08-21T14:03:09.137Z,48.08
2017-08-21T14:04:19.421Z,47.11
2017-08-21T14:05:29.095Z,48.18
2017-08-21T14:06:39.386Z,47.11
2017-08-21T14:07:49.042Z,46.34
2017-08-21T14:08:58.693Z,46.63
2017-08-21T14:10:08.661Z,47.24
2017-08-21T14:11:18.951Z,46.94
2017-08-21T14:12:28.918Z,47.43
2017-08-21T14:13:38.891Z,47.72
2017-08-21T14:14:48.544Z,46.77
2017-08-21T14:15:58.541Z,46.89
2017-08-21T14:17:08.541Z,45.27
2017-08-21T14:18:18.828Z,46.14
2017-08-21T14:19:28.795Z,46.22
2017-08-21T14:20:38.448Z,47.09
2017-08-21T14:21:48.418Z,46.22
2017-08-21T14:22:58.386Z,45.34
2017-08-21T14:24:08.702Z,47.16
2017-08-21T14:25:18.988Z,46.39
2017-08-21T14:26:29.291Z,46.09
2017-08-21T14:27:39.286Z,45.61
2017-08-21T14:28:49.570Z,46
2017-08-21T14:29:59.539Z,47.06
2017-08-21T14:31:09.195Z,46.19
2017-08-21T14:32:19.192Z,46.09
2017-08-21T14:33:29.171Z,45.71
2017-08-21T14:34:39.138Z,45.71
2017-08-21T14:35:49.156Z,45.54
2017-08-21T14:36:59.437Z,44.76
2017-08-21T14:38:09.432Z,44.67
2017-08-21T14:39:19.407Z,45.34
2017-08-21T14:40:29.696Z,45.73
2017-08-21T14:41:39.977Z,44.67
2017-08-21T14:42:50.276Z,44.3
2017-08-21T14:44:00.246Z,44.78
2017-08-21T14:45:10.528Z,44.68
2017-08-21T14:46:20.500Z,43.82
2017-08-21T14:47:29.840Z,43.6
2017-08-21T14:48:39.494Z,43.43
2017-08-21T14:49:49.778Z,43.79
2017-08-21T14:51:00.061Z,44.06
2017-08-21T14:52:10.343Z,43.87
2017-08-21T14:53:20.322Z,44.33
2017-08-21T14:54:29.972Z,45.47
2017-08-21T14:55:39.974Z,46.32
2017-08-21T14:56:50.253Z,46
2017-08-21T14:57:59.591Z,46.49
2017-08-21T14:59:09.562Z,48.3
2017-08-21T15:00:19.214Z,49.73
2017-08-21T15:01:29.179Z,49.73
2017-08-21T15:02:39.150Z,50.11
2017-08-21T15:03:49.116Z,50.57
2017-08-21T15:04:59.407Z,51.25